sensor_id;sensor_type;location;lat;lon;timestamp;temperature;humidity
75372;HTU21D;63956;52.006;5.878;2023-04-06T00:01:39;5.13;57.53
75372;HTU21D;63956;52.006;5.878;2023-04-06T00:04:08;5.11;57.63
75372;HTU21D;63956;52.006;5.878;2023-04-06T00:06:40;5.09;57.74
75372;HTU21D;63956;52.006;5.878;2023-04-06T00:09:09;5.08;57.80
75372;HTU21D;63956;52.006;5.878;2023-04-06T00:11:38;5.06;57.85
75372;HTU21D;63956;52.006;5.878;2023-04-06T00:14:07;5.07;57.61
75372;HTU21D;63956;52.006;5.878;2023-04-06T00:16:37;5.03;57.90
75372;HTU21D;63956;52.006;5.878;2023-04-06T00:19:06;5.03;57.90
75372;HTU21D;63956;52.006;5.878;2023-04-06T00:21:35;5.04;58.07
75372;HTU21D;63956;52.006;5.878;2023-04-06T00:24:08;5.03;58.18
75372;HTU21D;63956;52.006;5.878;2023-04-06T00:26:37;5.04;58.17
75372;HTU21D;63956;52.006;5.878;2023-04-06T00:29:06;5.04;58.20
75372;HTU21D;63956;52.006;5.878;2023-04-06T00:31:35;5.06;57.90
75372;HTU21D;63956;52.006;5.878;2023-04-06T00:34:05;5.01;58.02
75372;HTU21D;63956;52.006;5.878;2023-04-06T00:36:35;5.01;58.12
75372;HTU21D;63956;52.006;5.878;2023-04-06T00:39:07;5.01;58.32
75372;HTU21D;63956;52.006;5.878;2023-04-06T00:41:36;5.00;58.32
75372;HTU21D;63956;52.006;5.878;2023-04-06T00:44:05;5.04;57.97
75372;HTU21D;63956;52.006;5.878;2023-04-06T00:46:34;4.98;58.12
75372;HTU21D;63956;52.006;5.878;2023-04-06T00:49:03;5.00;57.97
75372;HTU21D;63956;52.006;5.878;2023-04-06T00:51:32;4.92;58.32
75372;HTU21D;63956;52.006;5.878;2023-04-06T00:54:01;4.94;58.08
75372;HTU21D;63956;52.006;5.878;2023-04-06T00:56:35;4.87;58.38
75372;HTU21D;63956;52.006;5.878;2023-04-06T00:59:05;4.84;58.58
75372;HTU21D;63956;52.006;5.878;2023-04-06T01:01:34;4.84;58.70
75372;HTU21D;63956;52.006;5.878;2023-04-06T01:04:15;4.84;58.64
75372;HTU21D;63956;52.006;5.878;2023-04-06T01:06:44;4.88;58.32
75372;HTU21D;63956;52.006;5.878;2023-04-06T01:09:13;4.81;58.61
75372;HTU21D;63956;52.006;5.878;2023-04-06T01:11:45;4.78;58.70
75372;HTU21D;63956;52.006;5.878;2023-04-06T01:14:20;4.78;58.72
75372;HTU21D;63956;52.006;5.878;2023-04-06T01:16:59;4.78;58.73
75372;HTU21D;63956;52.006;5.878;2023-04-06T01:19:31;4.78;58.65
75372;HTU21D;63956;52.006;5.878;2023-04-06T01:22:02;4.77;58.76
75372;HTU21D;63956;52.006;5.878;2023-04-06T01:24:34;4.80;58.48
75372;HTU21D;63956;52.006;5.878;2023-04-06T01:27:08;4.75;58.66
75372;HTU21D;63956;52.006;5.878;2023-04-06T01:29:52;4.72;58.78
75372;HTU21D;63956;52.006;5.878;2023-04-06T01:32:48;4.71;58.92
75372;HTU21D;63956;52.006;5.878;2023-04-06T01:35:25;4.68;58.90
75372;HTU21D;63956;52.006;5.878;2023-04-06T01:38:05;4.69;58.97
75372;HTU21D;63956;52.006;5.878;2023-04-06T01:40:38;4.68;59.06
75372;HTU21D;63956;52.006;5.878;2023-04-06T01:43:09;4.66;59.11
75372;HTU21D;63956;52.006;5.878;2023-04-06T01:45:57;4.67;58.96
75372;HTU21D;63956;52.006;5.878;2023-04-06T01:48:32;4.69;58.83
75372;HTU21D;63956;52.006;5.878;2023-04-06T01:51:09;4.65;58.95
75372;HTU21D;63956;52.006;5.878;2023-04-06T01:53:47;4.65;59.19
75372;HTU21D;63956;52.006;5.878;2023-04-06T01:56:23;4.64;59.23
75372;HTU21D;63956;52.006;5.878;2023-04-06T01:59:12;4.67;59.27
75372;HTU21D;63956;52.006;5.878;2023-04-06T02:01:43;4.66;59.24
75372;HTU21D;63956;52.006;5.878;2023-04-06T02:04:12;4.68;59.28
75372;HTU21D;63956;52.006;5.878;2023-04-06T02:06:44;4.69;59.40
75372;HTU21D;63956;52.006;5.878;2023-04-06T02:09:18;4.71;59.39
75372;HTU21D;63956;52.006;5.878;2023-04-06T02:11:50;4.72;59.52
75372;HTU21D;63956;52.006;5.878;2023-04-06T02:14:19;4.74;59.44
75372;HTU21D;63956;52.006;5.878;2023-04-06T02:16:52;4.74;59.41
75372;HTU21D;63956;52.006;5.878;2023-04-06T02:19:22;4.76;59.28
75372;HTU21D;63956;52.006;5.878;2023-04-06T02:21:51;4.79;59.45
75372;HTU21D;63956;52.006;5.878;2023-04-06T02:24:20;4.83;59.13
75372;HTU21D;63956;52.006;5.878;2023-04-06T02:26:52;4.81;59.41
75372;HTU21D;63956;52.006;5.878;2023-04-06T02:29:21;4.82;59.13
75372;HTU21D;63956;52.006;5.878;2023-04-06T02:31:51;4.84;59.38
75372;HTU21D;63956;52.006;5.878;2023-04-06T02:34:22;4.88;59.36
75372;HTU21D;63956;52.006;5.878;2023-04-06T02:36:52;4.92;59.41
75372;HTU21D;63956;52.006;5.878;2023-04-06T02:39:21;4.97;59.09
75372;HTU21D;63956;52.006;5.878;2023-04-06T02:41:53;4.95;58.96
75372;HTU21D;63956;52.006;5.878;2023-04-06T02:44:24;4.97;59.02
75372;HTU21D;63956;52.006;5.878;2023-04-06T02:46:53;5.05;58.83
75372;HTU21D;63956;52.006;5.878;2023-04-06T02:49:24;5.03;58.71
75372;HTU21D;63956;52.006;5.878;2023-04-06T02:51:56;5.04;59.06
75372;HTU21D;63956;52.006;5.878;2023-04-06T02:54:29;5.07;59.13
75372;HTU21D;63956;52.006;5.878;2023-04-06T02:57:02;5.07;59.25
75372;HTU21D;63956;52.006;5.878;2023-04-06T02:59:39;5.10;59.33
75372;HTU21D;63956;52.006;5.878;2023-04-06T03:02:23;5.12;59.25
75372;HTU21D;63956;52.006;5.878;2023-04-06T03:04:56;5.12;59.20
75372;HTU21D;63956;52.006;5.878;2023-04-06T03:07:32;5.15;59.03
75372;HTU21D;63956;52.006;5.878;2023-04-06T03:10:01;5.18;59.16
75372;HTU21D;63956;52.006;5.878;2023-04-06T03:12:35;5.19;58.93
75372;HTU21D;63956;52.006;5.878;2023-04-06T03:15:17;5.23;58.88
75372;HTU21D;63956;52.006;5.878;2023-04-06T03:17:51;5.26;58.75
75372;HTU21D;63956;52.006;5.878;2023-04-06T03:20:38;5.28;58.63
75372;HTU21D;63956;52.006;5.878;2023-04-06T03:23:09;5.34;58.69
75372;HTU21D;63956;52.006;5.878;2023-04-06T03:25:41;5.36;58.87
75372;HTU21D;63956;52.006;5.878;2023-04-06T03:28:17;5.38;58.90
75372;HTU21D;63956;52.006;5.878;2023-04-06T03:30:52;5.41;58.78
75372;HTU21D;63956;52.006;5.878;2023-04-06T03:33:39;5.43;58.29
75372;HTU21D;63956;52.006;5.878;2023-04-06T03:36:14;5.46;58.00
75372;HTU21D;63956;52.006;5.878;2023-04-06T03:38:44;5.49;58.10
75372;HTU21D;63956;52.006;5.878;2023-04-06T03:41:14;5.52;57.90
75372;HTU21D;63956;52.006;5.878;2023-04-06T03:43:54;5.54;57.73
75372;HTU21D;63956;52.006;5.878;2023-04-06T03:46:23;5.61;57.81
75372;HTU21D;63956;52.006;5.878;2023-04-06T03:48:55;5.61;58.00
75372;HTU21D;63956;52.006;5.878;2023-04-06T03:51:25;5.64;58.09
75372;HTU21D;63956;52.006;5.878;2023-04-06T03:53:54;5.65;58.19
75372;HTU21D;63956;52.006;5.878;2023-04-06T03:56:23;5.69;58.00
75372;HTU21D;63956;52.006;5.878;2023-04-06T03:58:56;5.66;57.71
75372;HTU21D;63956;52.006;5.878;2023-04-06T04:01:25;5.66;57.61
75372;HTU21D;63956;52.006;5.878;2023-04-06T04:03:55;5.68;57.20
75372;HTU21D;63956;52.006;5.878;2023-04-06T04:06:24;5.74;57.47
75372;HTU21D;63956;52.006;5.878;2023-04-06T04:08:53;5.68;57.44
75372;HTU21D;63956;52.006;5.878;2023-04-06T04:11:22;5.70;57.39
75372;HTU21D;63956;52.006;5.878;2023-04-06T04:14:00;5.72;57.27
75372;HTU21D;63956;52.006;5.878;2023-04-06T04:16:30;5.75;57.37
75372;HTU21D;63956;52.006;5.878;2023-04-06T04:18:59;5.77;57.32
75372;HTU21D;63956;52.006;5.878;2023-04-06T04:21:29;5.84;57.27
75372;HTU21D;63956;52.006;5.878;2023-04-06T04:24:04;5.80;57.26
75372;HTU21D;63956;52.006;5.878;2023-04-06T04:26:35;5.80;57.30
75372;HTU21D;63956;52.006;5.878;2023-04-06T04:29:08;5.81;57.42
75372;HTU21D;63956;52.006;5.878;2023-04-06T04:31:38;5.84;57.32
75372;HTU21D;63956;52.006;5.878;2023-04-06T04:34:14;5.87;57.02
75372;HTU21D;63956;52.006;5.878;2023-04-06T04:36:46;5.89;56.96
75372;HTU21D;63956;52.006;5.878;2023-04-06T04:39:23;5.90;57.15
75372;HTU21D;63956;52.006;5.878;2023-04-06T04:42:00;5.93;57.38
75372;HTU21D;63956;52.006;5.878;2023-04-06T04:44:34;5.94;57.35
75372;HTU21D;63956;52.006;5.878;2023-04-06T04:47:04;5.97;57.39
75372;HTU21D;63956;52.006;5.878;2023-04-06T04:49:41;5.96;57.46
75372;HTU21D;63956;52.006;5.878;2023-04-06T04:52:14;5.96;57.19
75372;HTU21D;63956;52.006;5.878;2023-04-06T04:55:13;5.96;57.25
75372;HTU21D;63956;52.006;5.878;2023-04-06T04:57:46;5.96;57.36
75372;HTU21D;63956;52.006;5.878;2023-04-06T05:00:22;5.98;57.37
75372;HTU21D;63956;52.006;5.878;2023-04-06T05:02:55;5.99;56.74
75372;HTU21D;63956;52.006;5.878;2023-04-06T05:05:30;5.99;57.30
75372;HTU21D;63956;52.006;5.878;2023-04-06T05:08:01;5.99;57.16
75372;HTU21D;63956;52.006;5.878;2023-04-06T05:10:40;5.98;57.19
75372;HTU21D;63956;52.006;5.878;2023-04-06T05:13:09;6.04;57.18
75372;HTU21D;63956;52.006;5.878;2023-04-06T05:15:41;5.99;57.19
75372;HTU21D;63956;52.006;5.878;2023-04-06T05:18:22;5.99;57.00
75372;HTU21D;63956;52.006;5.878;2023-04-06T05:20:52;6.00;57.11
75372;HTU21D;63956;52.006;5.878;2023-04-06T05:23:28;6.00;57.35
75372;HTU21D;63956;52.006;5.878;2023-04-06T05:26:00;6.04;57.15
75372;HTU21D;63956;52.006;5.878;2023-04-06T05:28:32;6.05;57.10
75372;HTU21D;63956;52.006;5.878;2023-04-06T05:31:05;6.07;56.86
75372;HTU21D;63956;52.006;5.878;2023-04-06T05:33:44;6.09;57.01
75372;HTU21D;63956;52.006;5.878;2023-04-06T05:36:15;6.10;56.98
75372;HTU21D;63956;52.006;5.878;2023-04-06T05:38:47;6.13;57.08
75372;HTU21D;63956;52.006;5.878;2023-04-06T05:41:29;6.13;57.04
75372;HTU21D;63956;52.006;5.878;2023-04-06T05:43:58;6.16;56.78
75372;HTU21D;63956;52.006;5.878;2023-04-06T05:46:30;6.19;56.64
75372;HTU21D;63956;52.006;5.878;2023-04-06T05:49:00;6.21;56.65
75372;HTU21D;63956;52.006;5.878;2023-04-06T05:51:32;6.22;56.77
75372;HTU21D;63956;52.006;5.878;2023-04-06T05:54:02;6.26;56.80
75372;HTU21D;63956;52.006;5.878;2023-04-06T05:56:32;6.30;56.52
75372;HTU21D;63956;52.006;5.878;2023-04-06T05:59:02;6.33;56.56
75372;HTU21D;63956;52.006;5.878;2023-04-06T06:01:35;6.36;56.68
75372;HTU21D;63956;52.006;5.878;2023-04-06T06:04:05;6.40;56.44
75372;HTU21D;63956;52.006;5.878;2023-04-06T06:06:38;6.43;56.34
75372;HTU21D;63956;52.006;5.878;2023-04-06T06:09:16;6.46;56.35
75372;HTU21D;63956;52.006;5.878;2023-04-06T06:11:56;6.50;55.97
75372;HTU21D;63956;52.006;5.878;2023-04-06T06:14:27;6.51;56.17
75372;HTU21D;63956;52.006;5.878;2023-04-06T06:17:00;6.56;56.10
75372;HTU21D;63956;52.006;5.878;2023-04-06T06:19:29;6.60;56.15
75372;HTU21D;63956;52.006;5.878;2023-04-06T06:22:02;6.66;56.06
75372;HTU21D;63956;52.006;5.878;2023-04-06T06:24:34;6.70;56.02
75372;HTU21D;63956;52.006;5.878;2023-04-06T06:27:03;6.73;56.00
75372;HTU21D;63956;52.006;5.878;2023-04-06T06:29:34;6.76;56.07
75372;HTU21D;63956;52.006;5.878;2023-04-06T06:32:06;6.82;56.03
75372;HTU21D;63956;52.006;5.878;2023-04-06T06:34:36;6.86;55.55
75372;HTU21D;63956;52.006;5.878;2023-04-06T06:37:07;6.90;55.64
75372;HTU21D;63956;52.006;5.878;2023-04-06T06:39:38;6.97;55.78
75372;HTU21D;63956;52.006;5.878;2023-04-06T06:42:07;7.03;55.71
75372;HTU21D;63956;52.006;5.878;2023-04-06T06:45:02;7.11;55.56
75372;HTU21D;63956;52.006;5.878;2023-04-06T06:47:34;7.16;54.55
75372;HTU21D;63956;52.006;5.878;2023-04-06T06:50:04;7.20;55.15
75372;HTU21D;63956;52.006;5.878;2023-04-06T06:52:33;7.29;55.40
75372;HTU21D;63956;52.006;5.878;2023-04-06T06:55:03;7.38;55.33
75372;HTU21D;63956;52.006;5.878;2023-04-06T06:57:32;7.46;54.81
75372;HTU21D;63956;52.006;5.878;2023-04-06T07:00:02;7.53;55.04
75372;HTU21D;63956;52.006;5.878;2023-04-06T07:02:35;7.61;55.10
75372;HTU21D;63956;52.006;5.878;2023-04-06T07:05:05;7.69;54.88
75372;HTU21D;63956;52.006;5.878;2023-04-06T07:07:34;7.77;54.06
75372;HTU21D;63956;52.006;5.878;2023-04-06T07:10:05;7.82;54.42
75372;HTU21D;63956;52.006;5.878;2023-04-06T07:12:38;7.86;54.39
75372;HTU21D;63956;52.006;5.878;2023-04-06T07:15:08;7.91;54.51
75372;HTU21D;63956;52.006;5.878;2023-04-06T07:17:40;7.98;54.26
75372;HTU21D;63956;52.006;5.878;2023-04-06T07:20:12;8.03;54.30
75372;HTU21D;63956;52.006;5.878;2023-04-06T07:22:43;8.06;54.37
75372;HTU21D;63956;52.006;5.878;2023-04-06T07:25:12;8.15;53.82
75372;HTU21D;63956;52.006;5.878;2023-04-06T07:27:42;8.18;54.30
75372;HTU21D;63956;52.006;5.878;2023-04-06T07:30:12;8.23;54.26
75372;HTU21D;63956;52.006;5.878;2023-04-06T07:32:44;8.31;54.42
75372;HTU21D;63956;52.006;5.878;2023-04-06T07:35:14;8.37;54.33
75372;HTU21D;63956;52.006;5.878;2023-04-06T07:37:43;8.43;53.93
75372;HTU21D;63956;52.006;5.878;2023-04-06T07:40:13;8.49;53.81
75372;HTU21D;63956;52.006;5.878;2023-04-06T07:42:42;8.53;54.05
75372;HTU21D;63956;52.006;5.878;2023-04-06T07:45:12;8.60;54.03
75372;HTU21D;63956;52.006;5.878;2023-04-06T07:47:45;8.67;54.10
75372;HTU21D;63956;52.006;5.878;2023-04-06T07:50:14;8.72;53.85
75372;HTU21D;63956;52.006;5.878;2023-04-06T07:52:44;8.77;53.95
75372;HTU21D;63956;52.006;5.878;2023-04-06T07:55:14;8.80;53.78
75372;HTU21D;63956;52.006;5.878;2023-04-06T07:57:43;8.83;53.50
75372;HTU21D;63956;52.006;5.878;2023-04-06T08:00:13;8.90;53.69
75372;HTU21D;63956;52.006;5.878;2023-04-06T08:02:44;8.89;53.59
75372;HTU21D;63956;52.006;5.878;2023-04-06T08:05:14;8.92;53.82
75372;HTU21D;63956;52.006;5.878;2023-04-06T08:07:44;8.94;53.84
75372;HTU21D;63956;52.006;5.878;2023-04-06T08:10:12;9.03;53.75
75372;HTU21D;63956;52.006;5.878;2023-04-06T08:12:41;9.01;53.81
75372;HTU21D;63956;52.006;5.878;2023-04-06T08:15:10;9.08;53.78
75372;HTU21D;63956;52.006;5.878;2023-04-06T08:17:40;9.06;53.81
75372;HTU21D;63956;52.006;5.878;2023-04-06T08:20:12;9.09;53.57
75372;HTU21D;63956;52.006;5.878;2023-04-06T08:22:41;9.11;53.75
75372;HTU21D;63956;52.006;5.878;2023-04-06T08:25:10;9.20;53.77
75372;HTU21D;63956;52.006;5.878;2023-04-06T08:27:39;9.17;53.71
75372;HTU21D;63956;52.006;5.878;2023-04-06T08:30:08;9.27;53.70
75372;HTU21D;63956;52.006;5.878;2023-04-06T08:32:38;9.26;53.74
75372;HTU21D;63956;52.006;5.878;2023-04-06T08:35:08;9.29;53.69
75372;HTU21D;63956;52.006;5.878;2023-04-06T08:37:39;9.35;53.48
75372;HTU21D;63956;52.006;5.878;2023-04-06T08:40:09;9.38;53.35
75372;HTU21D;63956;52.006;5.878;2023-04-06T08:42:40;9.46;53.62
75372;HTU21D;63956;52.006;5.878;2023-04-06T08:45:14;9.53;53.50
75372;HTU21D;63956;52.006;5.878;2023-04-06T08:47:48;9.61;53.20
75372;HTU21D;63956;52.006;5.878;2023-04-06T08:50:21;9.65;53.38
75372;HTU21D;63956;52.006;5.878;2023-04-06T08:52:54;9.69;53.17
75372;HTU21D;63956;52.006;5.878;2023-04-06T08:55:24;9.75;53.12
75372;HTU21D;63956;52.006;5.878;2023-04-06T08:57:54;9.81;52.31
75372;HTU21D;63956;52.006;5.878;2023-04-06T09:00:25;9.85;52.22
75372;HTU21D;63956;52.006;5.878;2023-04-06T09:02:56;9.92;52.04
75372;HTU21D;63956;52.006;5.878;2023-04-06T09:05:26;9.97;52.14
75372;HTU21D;63956;52.006;5.878;2023-04-06T09:07:57;10.07;52.38
75372;HTU21D;63956;52.006;5.878;2023-04-06T09:10:27;10.08;51.93
75372;HTU21D;63956;52.006;5.878;2023-04-06T09:13:04;10.12;51.50
75372;HTU21D;63956;52.006;5.878;2023-04-06T09:15:34;10.16;51.50
75372;HTU21D;63956;52.006;5.878;2023-04-06T09:18:04;10.21;51.98
75372;HTU21D;63956;52.006;5.878;2023-04-06T09:20:34;10.29;51.85
75372;HTU21D;63956;52.006;5.878;2023-04-06T09:23:06;10.36;51.77
75372;HTU21D;63956;52.006;5.878;2023-04-06T09:25:35;10.44;51.83
75372;HTU21D;63956;52.006;5.878;2023-04-06T09:28:04;10.56;51.91
75372;HTU21D;63956;52.006;5.878;2023-04-06T09:30:34;10.58;52.16
75372;HTU21D;63956;52.006;5.878;2023-04-06T09:33:04;10.65;51.96
75372;HTU21D;63956;52.006;5.878;2023-04-06T09:35:33;10.69;52.20
75372;HTU21D;63956;52.006;5.878;2023-04-06T09:38:13;10.77;52.11
75372;HTU21D;63956;52.006;5.878;2023-04-06T09:40:49;10.83;52.10
75372;HTU21D;63956;52.006;5.878;2023-04-06T09:43:25;10.92;52.29
75372;HTU21D;63956;52.006;5.878;2023-04-06T09:45:55;10.98;52.29
75372;HTU21D;63956;52.006;5.878;2023-04-06T09:48:25;11.05;52.29
75372;HTU21D;63956;52.006;5.878;2023-04-06T09:50:59;11.15;52.33
75372;HTU21D;63956;52.006;5.878;2023-04-06T09:53:39;11.27;52.19
75372;HTU21D;63956;52.006;5.878;2023-04-06T09:56:12;11.34;51.88
75372;HTU21D;63956;52.006;5.878;2023-04-06T09:58:48;11.42;51.75
75372;HTU21D;63956;52.006;5.878;2023-04-06T10:01:20;11.49;52.07
75372;HTU21D;63956;52.006;5.878;2023-04-06T10:03:58;11.56;50.85
75372;HTU21D;63956;52.006;5.878;2023-04-06T10:06:31;11.58;50.97
75372;HTU21D;63956;52.006;5.878;2023-04-06T10:09:06;11.61;50.58
75372;HTU21D;63956;52.006;5.878;2023-04-06T10:11:37;11.64;50.96
75372;HTU21D;63956;52.006;5.878;2023-04-06T10:14:07;11.71;50.59
75372;HTU21D;63956;52.006;5.878;2023-04-06T10:16:37;11.70;50.24
75372;HTU21D;63956;52.006;5.878;2023-04-06T10:19:12;11.70;50.11
75372;HTU21D;63956;52.006;5.878;2023-04-06T10:21:44;11.69;49.41
75372;HTU21D;63956;52.006;5.878;2023-04-06T10:24:17;11.63;49.35
75372;HTU21D;63956;52.006;5.878;2023-04-06T10:26:57;11.63;49.70
75372;HTU21D;63956;52.006;5.878;2023-04-06T10:29:26;11.60;49.87
75372;HTU21D;63956;52.006;5.878;2023-04-06T10:31:55;11.58;49.77
75372;HTU21D;63956;52.006;5.878;2023-04-06T10:34:34;11.58;50.24
75372;HTU21D;63956;52.006;5.878;2023-04-06T10:37:12;11.59;50.31
75372;HTU21D;63956;52.006;5.878;2023-04-06T10:39:52;11.60;50.32
75372;HTU21D;63956;52.006;5.878;2023-04-06T10:42:24;11.61;50.30
75372;HTU21D;63956;52.006;5.878;2023-04-06T10:44:54;11.61;50.21
75372;HTU21D;63956;52.006;5.878;2023-04-06T10:47:23;11.62;49.92
75372;HTU21D;63956;52.006;5.878;2023-04-06T10:49:52;11.63;50.17
75372;HTU21D;63956;52.006;5.878;2023-04-06T10:52:21;11.66;50.04
75372;HTU21D;63956;52.006;5.878;2023-04-06T10:54:53;11.68;50.43
75372;HTU21D;63956;52.006;5.878;2023-04-06T10:57:27;11.74;50.42
75372;HTU21D;63956;52.006;5.878;2023-04-06T10:59:58;11.77;50.43
75372;HTU21D;63956;52.006;5.878;2023-04-06T11:02:27;11.82;50.44
75372;HTU21D;63956;52.006;5.878;2023-04-06T11:04:56;11.86;50.63
75372;HTU21D;63956;52.006;5.878;2023-04-06T11:07:27;11.85;50.66
75372;HTU21D;63956;52.006;5.878;2023-04-06T11:09:59;11.86;50.96
75372;HTU21D;63956;52.006;5.878;2023-04-06T11:12:28;11.89;50.70
75372;HTU21D;63956;52.006;5.878;2023-04-06T11:14:59;11.90;50.56
75372;HTU21D;63956;52.006;5.878;2023-04-06T11:17:31;11.91;51.02
75372;HTU21D;63956;52.006;5.878;2023-04-06T11:20:03;11.92;51.14
75372;HTU21D;63956;52.006;5.878;2023-04-06T11:22:33;11.94;50.76
75372;HTU21D;63956;52.006;5.878;2023-04-06T11:25:08;11.97;50.97
75372;HTU21D;63956;52.006;5.878;2023-04-06T11:27:40;11.98;51.41
75372;HTU21D;63956;52.006;5.878;2023-04-06T11:30:10;12.00;51.45
75372;HTU21D;63956;52.006;5.878;2023-04-06T11:32:40;11.98;51.59
75372;HTU21D;63956;52.006;5.878;2023-04-06T11:35:20;12.00;51.46
75372;HTU21D;63956;52.006;5.878;2023-04-06T11:37:50;11.96;51.80
75372;HTU21D;63956;52.006;5.878;2023-04-06T11:40:23;11.93;51.92
75372;HTU21D;63956;52.006;5.878;2023-04-06T11:42:54;11.93;52.55
75372;HTU21D;63956;52.006;5.878;2023-04-06T11:45:24;11.90;53.02
75372;HTU21D;63956;52.006;5.878;2023-04-06T11:47:57;11.92;53.57
75372;HTU21D;63956;52.006;5.878;2023-04-06T11:50:32;11.94;54.08
75372;HTU21D;63956;52.006;5.878;2023-04-06T11:53:02;11.92;54.65
75372;HTU21D;63956;52.006;5.878;2023-04-06T11:55:39;11.91;54.85
75372;HTU21D;63956;52.006;5.878;2023-04-06T11:58:11;11.87;55.72
75372;HTU21D;63956;52.006;5.878;2023-04-06T12:00:41;11.83;55.99
75372;HTU21D;63956;52.006;5.878;2023-04-06T12:03:11;11.81;56.30
75372;HTU21D;63956;52.006;5.878;2023-04-06T12:05:40;11.75;56.78
75372;HTU21D;63956;52.006;5.878;2023-04-06T12:08:10;11.69;56.55
75372;HTU21D;63956;52.006;5.878;2023-04-06T12:10:41;11.63;57.35
75372;HTU21D;63956;52.006;5.878;2023-04-06T12:13:11;11.58;57.57
75372;HTU21D;63956;52.006;5.878;2023-04-06T12:15:40;11.54;57.84
75372;HTU21D;63956;52.006;5.878;2023-04-06T12:18:09;11.48;57.85
75372;HTU21D;63956;52.006;5.878;2023-04-06T12:20:38;11.42;57.73
75372;HTU21D;63956;52.006;5.878;2023-04-06T12:23:07;11.36;58.02
75372;HTU21D;63956;52.006;5.878;2023-04-06T12:25:42;11.32;57.88
75372;HTU21D;63956;52.006;5.878;2023-04-06T12:28:11;11.24;58.42
75372;HTU21D;63956;52.006;5.878;2023-04-06T12:30:41;11.19;58.87
75372;HTU21D;63956;52.006;5.878;2023-04-06T12:33:10;11.14;59.01
75372;HTU21D;63956;52.006;5.878;2023-04-06T12:35:40;11.09;59.36
75372;HTU21D;63956;52.006;5.878;2023-04-06T12:38:09;11.08;59.64
75372;HTU21D;63956;52.006;5.878;2023-04-06T12:40:41;11.04;59.77
75372;HTU21D;63956;52.006;5.878;2023-04-06T12:43:10;11.02;59.64
75372;HTU21D;63956;52.006;5.878;2023-04-06T12:45:39;11.01;60.26
75372;HTU21D;63956;52.006;5.878;2023-04-06T12:48:09;11.01;60.31
75372;HTU21D;63956;52.006;5.878;2023-04-06T12:50:38;10.98;60.54
75372;HTU21D;63956;52.006;5.878;2023-04-06T12:53:07;10.95;61.11
75372;HTU21D;63956;52.006;5.878;2023-04-06T12:55:36;10.89;61.43
75372;HTU21D;63956;52.006;5.878;2023-04-06T12:58:08;10.83;61.22
75372;HTU21D;63956;52.006;5.878;2023-04-06T13:00:38;10.81;61.54
75372;HTU21D;63956;52.006;5.878;2023-04-06T13:03:07;10.82;61.92
75372;HTU21D;63956;52.006;5.878;2023-04-06T13:05:37;10.83;61.22
75372;HTU21D;63956;52.006;5.878;2023-04-06T13:08:12;10.71;61.89
75372;HTU21D;63956;52.006;5.878;2023-04-06T13:10:43;10.66;62.35
75372;HTU21D;63956;52.006;5.878;2023-04-06T13:13:15;10.59;62.37
75372;HTU21D;63956;52.006;5.878;2023-04-06T13:15:45;10.55;62.74
75372;HTU21D;63956;52.006;5.878;2023-04-06T13:18:14;10.53;63.01
75372;HTU21D;63956;52.006;5.878;2023-04-06T13:20:43;10.52;63.54
75372;HTU21D;63956;52.006;5.878;2023-04-06T13:23:13;10.48;63.54
75372;HTU21D;63956;52.006;5.878;2023-04-06T13:25:42;10.44;63.73
75372;HTU21D;63956;52.006;5.878;2023-04-06T13:28:11;10.41;63.92
75372;HTU21D;63956;52.006;5.878;2023-04-06T13:30:42;10.38;63.32
75372;HTU21D;63956;52.006;5.878;2023-04-06T13:33:12;10.29;64.05
75372;HTU21D;63956;52.006;5.878;2023-04-06T13:35:44;10.26;64.33
75372;HTU21D;63956;52.006;5.878;2023-04-06T13:38:14;10.26;64.52
75372;HTU21D;63956;52.006;5.878;2023-04-06T13:40:43;10.25;64.52
75372;HTU21D;63956;52.006;5.878;2023-04-06T13:43:13;10.28;64.98
75372;HTU21D;63956;52.006;5.878;2023-04-06T13:45:49;10.27;65.03
75372;HTU21D;63956;52.006;5.878;2023-04-06T13:48:20;10.26;65.01
75372;HTU21D;63956;52.006;5.878;2023-04-06T13:50:49;10.25;65.18
75372;HTU21D;63956;52.006;5.878;2023-04-06T13:53:18;10.27;65.44
75372;HTU21D;63956;52.006;5.878;2023-04-06T13:55:56;10.30;64.69
75372;HTU21D;63956;52.006;5.878;2023-04-06T13:58:25;10.26;65.33
75372;HTU21D;63956;52.006;5.878;2023-04-06T14:01:01;10.23;65.50
75372;HTU21D;63956;52.006;5.878;2023-04-06T14:03:31;10.25;65.96
75372;HTU21D;63956;52.006;5.878;2023-04-06T14:06:00;10.25;65.98
75372;HTU21D;63956;52.006;5.878;2023-04-06T14:08:30;10.27;66.36
75372;HTU21D;63956;52.006;5.878;2023-04-06T14:10:59;10.28;66.47
75372;HTU21D;63956;52.006;5.878;2023-04-06T14:13:28;10.31;65.63
75372;HTU21D;63956;52.006;5.878;2023-04-06T14:15:59;10.27;66.53
75372;HTU21D;63956;52.006;5.878;2023-04-06T14:18:29;10.24;66.85
75372;HTU21D;63956;52.006;5.878;2023-04-06T14:21:00;10.23;66.86
75372;HTU21D;63956;52.006;5.878;2023-04-06T14:23:29;10.22;67.27
75372;HTU21D;63956;52.006;5.878;2023-04-06T14:26:02;10.22;67.11
75372;HTU21D;63956;52.006;5.878;2023-04-06T14:28:32;10.22;67.30
75372;HTU21D;63956;52.006;5.878;2023-04-06T14:31:11;10.23;67.31
75372;HTU21D;63956;52.006;5.878;2023-04-06T14:33:41;10.22;67.70
75372;HTU21D;63956;52.006;5.878;2023-04-06T14:36:11;10.24;67.66
75372;HTU21D;63956;52.006;5.878;2023-04-06T14:38:40;10.24;67.65
75372;HTU21D;63956;52.006;5.878;2023-04-06T14:41:15;10.21;67.88
75372;HTU21D;63956;52.006;5.878;2023-04-06T14:43:46;10.20;68.08
75372;HTU21D;63956;52.006;5.878;2023-04-06T14:46:18;10.20;68.06
75372;HTU21D;63956;52.006;5.878;2023-04-06T14:48:47;10.20;68.18
75372;HTU21D;63956;52.006;5.878;2023-04-06T14:51:17;10.19;68.21
75372;HTU21D;63956;52.006;5.878;2023-04-06T14:53:46;10.18;68.33
75372;HTU21D;63956;52.006;5.878;2023-04-06T14:56:19;10.18;68.51
75372;HTU21D;63956;52.006;5.878;2023-04-06T14:58:49;10.14;68.74
75372;HTU21D;63956;52.006;5.878;2023-04-06T15:01:21;10.11;69.04
75372;HTU21D;63956;52.006;5.878;2023-04-06T15:03:50;10.12;69.10
75372;HTU21D;63956;52.006;5.878;2023-04-06T15:06:19;10.12;69.09
75372;HTU21D;63956;52.006;5.878;2023-04-06T15:08:49;10.11;69.09
75372;HTU21D;63956;52.006;5.878;2023-04-06T15:11:18;10.06;69.19
75372;HTU21D;63956;52.006;5.878;2023-04-06T15:13:47;10.08;68.59
75372;HTU21D;63956;52.006;5.878;2023-04-06T15:16:16;10.03;69.18
75372;HTU21D;63956;52.006;5.878;2023-04-06T15:18:48;10.05;68.57
75372;HTU21D;63956;52.006;5.878;2023-04-06T15:21:17;9.98;69.13
75372;HTU21D;63956;52.006;5.878;2023-04-06T15:23:46;9.97;69.18
75372;HTU21D;63956;52.006;5.878;2023-04-06T15:26:16;9.97;69.32
75372;HTU21D;63956;52.006;5.878;2023-04-06T15:28:46;9.98;69.56
75372;HTU21D;63956;52.006;5.878;2023-04-06T15:31:16;9.98;69.39
75372;HTU21D;63956;52.006;5.878;2023-04-06T15:33:48;9.98;69.56
75372;HTU21D;63956;52.006;5.878;2023-04-06T15:36:23;9.95;69.71
75372;HTU21D;63956;52.006;5.878;2023-04-06T15:38:54;9.96;69.83
75372;HTU21D;63956;52.006;5.878;2023-04-06T15:41:24;9.94;69.87
75372;HTU21D;63956;52.006;5.878;2023-04-06T15:43:54;9.93;69.92
75372;HTU21D;63956;52.006;5.878;2023-04-06T15:46:23;9.90;70.10
75372;HTU21D;63956;52.006;5.878;2023-04-06T15:48:55;9.89;69.98
75372;HTU21D;63956;52.006;5.878;2023-04-06T15:51:25;9.89;70.14
75372;HTU21D;63956;52.006;5.878;2023-04-06T15:53:55;9.89;70.19